Time;durP1;ratioP1;P1;durP2;ratioP2;P2;SDS_P1;SDS_P2;PMS_P1;PMS_P2;Temp;Humidity;BMP_temperature;BMP_pressure;BME280_temperature;BME280_humidity;BME280_pressure;Samples;Min_cycle;Max_cycle;Signal;HPM_P1;HPM_P2
2022/07/27 00:02:16;;;;;;;4.60;4.40;;;16.50;99.90;;;;;;5026488;28;20194;-63
2022/07/27 00:04:42;;;;;;;5.90;4.43;;;16.40;99.90;;;;;;5030930;28;20239;-63
2022/07/27 00:07:08;;;;;;;5.87;4.23;;;16.40;99.90;;;;;;5029469;28;20187;-63
2022/07/27 00:09:33;;;;;;;4.80;4.27;;;16.30;99.90;;;;;;5030841;28;20247;-62
2022/07/27 00:11:59;;;;;;;4.63;4.27;;;16.30;99.90;;;;;;5020175;28;20176;-62
2022/07/27 00:14:24;;;;;;;4.37;4.00;;;16.30;99.90;;;;;;5011244;28;20664;-64
2022/07/27 00:16:50;;;;;;;5.03;4.37;;;16.30;99.90;;;;;;5020585;28;20183;-63
2022/07/27 00:19:16;;;;;;;4.27;3.97;;;16.20;99.90;;;;;;5031357;28;20665;-63
2022/07/27 00:21:41;;;;;;;5.87;4.57;;;16.20;99.90;;;;;;5023889;28;20184;-63
2022/07/27 00:24:07;;;;;;;4.43;4.03;;;16.20;99.90;;;;;;5011194;28;20196;-63
2022/07/27 00:26:33;;;;;;;4.60;4.30;;;16.20;99.90;;;;;;5016671;28;20646;-64
2022/07/27 00:28:58;;;;;;;5.77;4.20;;;16.20;99.90;;;;;;5031327;28;20207;-61
2022/07/27 00:31:24;;;;;;;6.97;4.67;;;16.10;99.90;;;;;;5013922;28;20172;-63
2022/07/27 00:33:49;;;;;;;4.10;3.80;;;16.10;99.90;;;;;;5014988;28;20196;-63
2022/07/27 00:36:15;;;;;;;4.63;3.90;;;16.10;99.90;;;;;;5031363;28;20273;-63
2022/07/27 00:38:41;;;;;;;4.30;3.90;;;16.10;99.90;;;;;;5029263;28;20641;-63
2022/07/27 00:41:06;;;;;;;4.90;4.50;;;16.10;99.90;;;;;;5011515;28;20231;-62
2022/07/27 00:43:32;;;;;;;4.87;4.43;;;16.10;99.90;;;;;;5010962;28;20655;-63
2022/07/27 00:45:58;;;;;;;3.83;3.63;;;16.10;99.90;;;;;;5030942;28;20194;-63
2022/07/27 00:48:24;;;;;;;4.20;3.90;;;16.10;99.90;;;;;;5023016;28;20235;-63
2022/07/27 00:50:50;;;;;;;4.60;4.30;;;16.10;99.90;;;;;;5011255;28;20203;-63
2022/07/27 00:53:15;;;;;;;4.97;4.57;;;16.10;99.90;;;;;;5017044;28;20767;-62
2022/07/27 00:55:41;;;;;;;4.27;3.93;;;16.10;99.90;;;;;;5030808;28;20259;-62
2022/07/27 00:58:10;;;;;;;4.83;4.33;;;16.10;99.90;;;;;;5026682;28;20172;-63
2022/07/27 01:00:36;;;;;;;6.97;4.50;;;16.10;99.90;;;;;;5011389;28;20226;-62
2022/07/27 01:03:03;;;;;;;8.87;4.70;;;16.20;99.90;;;;;;5026821;28;20206;-63
2022/07/27 01:05:29;;;;;;;4.83;4.43;;;16.20;99.90;;;;;;5030632;28;20202;-63
2022/07/27 01:07:55;;;;;;;4.40;4.10;;;16.30;99.90;;;;;;5016592;28;20180;-63
2022/07/27 01:10:20;;;;;;;4.10;3.90;;;16.30;99.90;;;;;;5011102;28;20677;-64
2022/07/27 01:12:46;;;;;;;4.70;4.30;;;16.30;99.90;;;;;;5022764;28;20282;-64
2022/07/27 01:15:12;;;;;;;6.30;4.47;;;16.30;99.90;;;;;;5030612;28;20179;-64
2022/07/27 01:17:37;;;;;;;4.50;4.20;;;16.30;99.90;;;;;;5020254;28;20260;-63
2022/07/27 01:20:04;;;;;;;4.63;4.23;;;16.20;99.90;;;;;;5013321;28;20191;-64
2022/07/27 01:22:30;;;;;;;4.73;4.43;;;16.20;99.90;;;;;;5022803;28;20556;-64
2022/07/27 01:24:56;;;;;;;4.30;3.90;;;16.20;99.90;;;;;;5033975;28;20179;-64
2022/07/27 01:27:21;;;;;;;4.93;4.10;;;16.20;99.90;;;;;;5027086;28;20336;-64
2022/07/27 01:29:48;;;;;;;4.77;4.33;;;16.10;99.90;;;;;;5014646;28;20568;-62
2022/07/27 01:32:13;;;;;;;4.30;4.00;;;16.10;99.90;;;;;;5019684;28;20287;-63
2022/07/27 01:34:39;;;;;;;4.87;4.20;;;16.00;99.90;;;;;;5033825;28;20270;-63
2022/07/27 01:37:05;;;;;;;4.47;4.17;;;16.10;99.90;;;;;;5030636;28;20577;-64
2022/07/27 01:39:31;;;;;;;4.17;3.87;;;16.00;99.90;;;;;;5014274;28;20188;-64
2022/07/27 01:41:57;;;;;;;4.40;4.00;;;16.00;99.90;;;;;;5015653;28;20187;-63
2022/07/27 01:44:23;;;;;;;8.07;4.20;;;15.90;99.90;;;;;;5031790;28;20219;-64
2022/07/27 01:46:49;;;;;;;4.87;4.40;;;15.80;99.90;;;;;;5033627;28;20711;-64
2022/07/27 01:49:15;;;;;;;4.97;4.60;;;15.80;99.90;;;;;;5014114;28;20287;-64
2022/07/27 01:51:40;;;;;;;5.97;4.27;;;15.80;99.90;;;;;;5014148;28;20186;-64
2022/07/27 01:54:06;;;;;;;3.70;3.60;;;15.80;99.90;;;;;;5031492;28;20288;-64
2022/07/27 01:56:32;;;;;;;5.47;4.17;;;15.70;99.90;;;;;;5033664;28;20186;-63
2022/07/27 01:58:58;;;;;;;4.43;4.13;;;15.70;99.90;;;;;;5017733;28;20241;-63
2022/07/27 02:01:24;;;;;;;4.67;4.27;;;15.60;99.90;;;;;;5013940;28;20542;-64
2022/07/27 02:03:50;;;;;;;4.77;4.37;;;15.50;99.90;;;;;;5027449;28;20210;-63
2022/07/27 02:06:15;;;;;;;4.57;4.27;;;15.50;99.90;;;;;;5033518;28;20606;-64
2022/07/27 02:08:41;;;;;;;5.07;4.53;;;15.40;99.90;;;;;;5020531;28;20215;-64
2022/07/27 02:13:51;;;;;;;4.67;4.30;;;15.30;99.90;;;;;;5026182;28;20214;-64
2022/07/27 02:16:18;;;;;;;4.40;4.10;;;15.30;99.90;;;;;;5033488;28;20175;-64
2022/07/27 02:18:44;;;;;;;4.63;4.13;;;15.20;99.90;;;;;;5031614;28;20548;-64
2022/07/27 02:21:10;;;;;;;5.37;4.20;;;15.20;99.90;;;;;;5033371;28;20179;-64
2022/07/27 02:23:37;;;;;;;4.60;4.30;;;15.10;99.90;;;;;;5022957;28;20681;-63
2022/07/27 02:26:04;;;;;;;5.27;4.60;;;15.10;99.90;;;;;;5013842;28;20183;-63
2022/07/27 02:28:30;;;;;;;5.53;4.10;;;15.00;99.90;;;;;;5019383;28;20326;-64
2022/07/27 02:30:56;;;;;;;4.63;4.33;;;14.90;99.90;;;;;;5018399;28;20619;-63
2022/07/27 02:33:22;;;;;;;4.60;4.20;;;14.80;99.90;;;;;;5013029;28;20192;-64
2022/07/27 02:35:47;;;;;;;7.57;4.70;;;14.80;99.90;;;;;;5013201;28;20176;-64
2022/07/27 02:38:13;;;;;;;5.47;4.47;;;14.70;99.90;;;;;;5013346;28;20239;-63
2022/07/27 02:40:38;;;;;;;5.07;4.60;;;14.60;99.90;;;;;;5013008;28;20180;-64
2022/07/27 02:43:04;;;;;;;5.10;4.70;;;14.60;99.90;;;;;;5022998;28;20302;-64
2022/07/27 02:45:30;;;;;;;7.63;4.63;;;14.50;99.90;;;;;;5029607;28;20187;-64
2022/07/27 02:47:55;;;;;;;5.20;4.80;;;14.40;99.90;;;;;;5013362;28;20172;-64
2022/07/27 02:50:21;;;;;;;5.43;5.10;;;14.30;99.90;;;;;;5013497;28;20235;-63
2022/07/27 02:52:47;;;;;;;5.23;4.87;;;14.20;99.90;;;;;;5032597;28;20558;-63
2022/07/27 02:55:12;;;;;;;5.27;4.83;;;14.10;99.90;;;;;;5032446;28;20183;-64
2022/07/27 02:57:39;;;;;;;5.13;4.63;;;14.10;99.90;;;;;;5013651;28;20176;-63
2022/07/27 03:00:11;;;;;;;4.83;4.43;;;14.00;99.90;;;;;;5013019;28;20188;-64
2022/07/27 03:02:37;;;;;;;5.23;4.77;;;13.90;99.90;;;;;;5030445;28;20215;-63
2022/07/27 03:05:04;;;;;;;5.90;5.27;;;13.90;99.90;;;;;;5032392;28;20179;-64
2022/07/27 03:07:30;;;;;;;8.10;5.43;;;13.80;99.90;;;;;;5015701;28;20184;-64
2022/07/27 03:09:55;;;;;;;6.30;5.90;;;13.80;99.90;;;;;;5012743;28;20212;-64
2022/07/27 03:12:21;;;;;;;6.73;5.40;;;13.70;99.90;;;;;;5026727;28;20281;-64
2022/07/27 03:14:47;;;;;;;8.80;5.13;;;13.60;99.90;;;;;;5032035;28;20168;-63
2022/07/27 03:17:12;;;;;;;5.70;5.30;;;13.60;99.90;;;;;;5019245;28;20176;-63
2022/07/27 03:19:38;;;;;;;5.40;5.00;;;13.60;99.90;;;;;;5012612;28;20186;-64
2022/07/27 03:22:03;;;;;;;5.87;5.07;;;13.50;99.90;;;;;;5022955;28;20184;-63
2022/07/27 03:24:29;;;;;;;6.97;5.10;;;13.50;99.90;;;;;;5031786;28;20218;-64
2022/07/27 03:26:55;;;;;;;5.60;5.10;;;13.40;99.90;;;;;;5022762;28;20184;-62
2022/07/27 03:29:20;;;;;;;7.83;4.90;;;13.40;99.90;;;;;;5012600;28;20207;-64
2022/07/27 03:31:46;;;;;;;6.43;5.10;;;13.30;99.90;;;;;;5019369;28;20254;-63
2022/07/27 03:34:11;;;;;;;5.80;5.00;;;13.20;99.90;;;;;;5031703;28;20250;-63
2022/07/27 03:36:37;;;;;;;5.33;4.90;;;13.20;99.90;;;;;;5025939;28;20242;-62
2022/07/27 03:39:03;;;;;;;6.57;5.53;;;13.10;99.90;;;;;;5012311;28;20211;-63
2022/07/27 03:41:28;;;;;;;6.70;5.47;;;13.10;99.90;;;;;;5015709;28;20183;-64
2022/07/27 03:43:54;;;;;;;5.60;5.30;;;13.10;99.90;;;;;;5031259;28;20297;-64
2022/07/27 03:46:20;;;;;;;6.50;5.77;;;13.10;99.90;;;;;;5029461;28;20175;-64
2022/07/27 03:48:45;;;;;;;5.87;5.37;;;13.00;99.90;;;;;;5011849;28;20207;-63
2022/07/27 03:51:11;;;;;;;6.57;5.10;;;13.00;99.90;;;;;;5010914;28;20255;-64
2022/07/27 03:53:36;;;;;;;7.50;5.07;;;13.00;99.90;;;;;;5031367;28;20191;-63
2022/07/27 03:56:02;;;;;;;5.93;5.47;;;12.90;99.90;;;;;;5031787;28;20661;-63
2022/07/27 03:58:28;;;;;;;6.33;5.73;;;12.90;99.90;;;;;;5012919;28;20199;-61
2022/07/27 04:00:53;;;;;;;7.70;5.63;;;12.90;99.90;;;;;;5011855;28;20251;-64
2022/07/27 04:03:19;;;;;;;8.67;5.70;;;12.90;99.90;;;;;;5012649;28;20577;-64
2022/07/27 04:05:45;;;;;;;6.77;5.47;;;12.90;99.90;;;;;;5011655;28;20168;-63
2022/07/27 04:08:10;;;;;;;5.67;5.37;;;12.90;99.90;;;;;;5026662;28;20273;-62
2022/07/27 04:10:36;;;;;;;6.40;5.80;;;12.90;99.90;;;;;;5031619;28;20183;-63
2022/07/27 04:13:01;;;;;;;5.70;5.30;;;12.90;99.90;;;;;;5017173;28;20211;-63
2022/07/27 04:15:27;;;;;;;5.57;5.20;;;12.90;99.90;;;;;;5011059;28;20722;-64
2022/07/27 04:17:53;;;;;;;6.27;5.67;;;12.90;99.90;;;;;;5022101;28;20184;-63
2022/07/27 04:20:19;;;;;;;7.70;5.43;;;12.90;99.90;;;;;;5031093;28;20226;-64
2022/07/27 04:22:44;;;;;;;7.93;6.20;;;12.90;99.90;;;;;;5021181;28;20673;-62
2022/07/27 04:25:10;;;;;;;6.00;5.40;;;12.90;99.90;;;;;;5010184;28;20230;-64
2022/07/27 04:27:36;;;;;;;5.90;5.60;;;12.90;99.90;;;;;;5025542;28;20187;-63
2022/07/27 04:30:03;;;;;;;6.40;5.73;;;13.00;99.90;;;;;;5024244;28;20580;-63
2022/07/27 04:32:29;;;;;;;7.47;5.57;;;13.00;99.90;;;;;;5011499;28;20230;-63
2022/07/27 04:34:54;;;;;;;6.30;5.77;;;13.10;99.90;;;;;;5016291;28;20183;-63
2022/07/27 04:37:20;;;;;;;8.03;6.00;;;13.10;99.90;;;;;;5031235;28;20310;-63
2022/07/27 04:39:45;;;;;;;6.63;5.90;;;13.10;99.90;;;;;;5027716;28;20660;-63
2022/07/27 04:42:11;;;;;;;6.90;6.27;;;13.20;99.90;;;;;;5011712;28;20387;-64
2022/07/27 04:44:37;;;;;;;6.77;5.63;;;13.20;99.90;;;;;;5054217;22;20234;-66
2022/07/27 04:47:02;;;;;;;6.40;5.80;;;13.20;99.90;;;;;;5051187;28;20171;-67
2022/07/27 04:49:28;;;;;;;6.03;5.53;;;13.30;99.90;;;;;;5050450;28;20214;-67
2022/07/27 04:51:53;;;;;;;6.27;5.67;;;13.30;99.90;;;;;;5050995;28;20702;-66
2022/07/27 04:54:19;;;;;;;6.10;5.70;;;13.50;99.90;;;;;;5051852;28;20214;-67
2022/07/27 04:56:45;;;;;;;7.07;6.37;;;13.60;99.90;;;;;;5036282;28;20633;-67
2022/07/27 04:59:10;;;;;;;6.30;5.83;;;13.80;99.90;;;;;;5034930;28;20704;-67
2022/07/27 05:01:36;;;;;;;6.17;5.73;;;14.00;99.90;;;;;;5050842;28;20178;-67
2022/07/27 05:04:03;;;;;;;7.20;6.60;;;14.00;99.90;;;;;;5054445;28;20618;-67
2022/07/27 05:06:31;;;;;;;6.23;5.83;;;14.10;99.90;;;;;;5053824;28;20170;-66
2022/07/27 05:08:56;;;;;;;6.33;5.83;;;14.10;99.90;;;;;;5054453;28;20198;-64
2022/07/27 05:11:22;;;;;;;6.30;5.80;;;14.20;99.90;;;;;;5054175;28;20175;-64
2022/07/27 05:13:47;;;;;;;6.33;5.90;;;14.20;99.90;;;;;;5054424;28;20195;-64
2022/07/27 05:16:13;;;;;;;7.27;5.90;;;14.20;99.90;;;;;;5053945;28;20184;-64
2022/07/27 05:18:39;;;;;;;7.03;6.33;;;14.30;99.90;;;;;;5054653;28;20600;-64
2022/07/27 05:21:05;;;;;;;6.10;5.50;;;14.40;99.90;;;;;;5045315;28;20734;-64
2022/07/27 05:23:31;;;;;;;7.60;6.90;;;14.50;99.90;;;;;;5034104;28;20226;-67
2022/07/27 05:25:57;;;;;;;7.67;6.07;;;14.60;99.90;;;;;;5034918;28;20591;-67
2022/07/27 05:28:23;;;;;;;6.27;5.67;;;14.70;99.90;;;;;;5034159;28;20266;-66
2022/07/27 05:30:48;;;;;;;5.43;4.93;;;14.90;99.90;;;;;;5066208;28;20167;-64
2022/07/27 05:33:14;;;;;;;11.97;6.03;;;15.10;99.90;;;;;;5034333;28;20199;-64
2022/07/27 05:35:40;;;;;;;6.03;5.53;;;15.10;99.90;;;;;;5037101;28;20241;-64
2022/07/27 05:38:05;;;;;;;6.43;5.67;;;15.10;99.90;;;;;;5035775;28;20184;-65
2022/07/27 05:40:31;;;;;;;6.63;5.90;;;15.20;99.90;;;;;;5037033;28;20171;-65
2022/07/27 05:42:57;;;;;;;6.33;5.80;;;15.20;99.90;;;;;;5053761;28;20245;-65
2022/07/27 05:45:23;;;;;;;6.77;5.50;;;15.40;99.90;;;;;;5033921;28;20257;-65
2022/07/27 05:47:49;;;;;;;6.00;5.60;;;15.60;99.90;;;;;;5034219;28;20239;-65
2022/07/27 05:50:15;;;;;;;7.67;5.80;;;15.80;99.90;;;;;;5032506;28;20611;-65
2022/07/27 05:52:42;;;;;;;5.83;5.27;;;16.10;99.90;;;;;;5053121;28;20206;-65
2022/07/27 05:55:08;;;;;;;5.97;5.47;;;16.50;99.90;;;;;;5053449;28;20193;-66
2022/07/27 05:57:33;;;;;;;6.23;5.73;;;17.10;99.90;;;;;;5034942;28;20184;-66
2022/07/27 06:00:00;;;;;;;7.00;5.37;;;17.50;99.90;;;;;;5033500;28;20179;-66
2022/07/27 06:02:27;;;;;;;7.17;6.00;;;18.00;99.90;;;;;;5049943;28;20183;-65
2022/07/27 06:04:53;;;;;;;7.27;6.67;;;18.40;99.90;;;;;;5043793;28;20207;-65
2022/07/27 06:10:04;;;;;;;7.97;5.97;;;19.10;99.90;;;;;;5043166;28;20690;-65
2022/07/27 06:12:29;;;;;;;5.57;5.07;;;19.40;99.90;;;;;;5053804;28;20171;-65
2022/07/27 06:14:55;;;;;;;5.97;4.90;;;19.60;99.90;;;;;;5039828;28;20260;-65
2022/07/27 06:17:20;;;;;;;5.17;4.67;;;19.90;99.90;;;;;;5033321;28;20179;-65
2022/07/27 06:19:46;;;;;;;6.97;5.23;;;20.10;99.90;;;;;;5044727;28;20182;-65
2022/07/27 06:22:12;;;;;;;4.70;4.30;;;20.60;99.90;;;;;;5053405;28;20182;-65
2022/07/27 06:24:37;;;;;;;6.20;5.50;;;20.90;99.90;;;;;;5043633;28;20207;-65
2022/07/27 06:27:03;;;;;;;6.03;4.40;;;21.10;99.90;;;;;;5066070;28;20266;-65
2022/07/27 06:29:29;;;;;;;5.27;4.50;;;20.90;99.90;;;;;;5037738;28;20198;-65
2022/07/27 06:31:54;;;;;;;5.80;4.47;;;20.80;99.90;;;;;;5041898;28;20312;-65
2022/07/27 06:34:20;;;;;;;7.30;5.07;;;21.00;99.90;;;;;;5033273;28;20197;-65
2022/07/27 06:36:45;;;;;;;5.70;4.33;;;21.10;99.90;;;;;;5032917;28;20644;-66
2022/07/27 06:39:11;;;;;;;5.27;4.77;;;21.20;99.90;;;;;;5036281;28;20229;-65
2022/07/27 06:41:37;;;;;;;4.38;4.07;;;21.30;99.90;;;;;;5051258;28;20179;-65
2022/07/27 06:44:03;;;;;;;4.67;4.27;;;21.20;99.90;;;;;;5050201;28;20284;-66
2022/07/27 06:46:28;;;;;;;10.33;5.20;;;21.30;99.90;;;;;;5032217;28;20171;-65
2022/07/27 06:48:55;;;;;;;5.32;3.90;;;21.40;99.90;;;;;;5032411;28;20199;-66
2022/07/27 06:51:21;;;;;;;5.20;4.32;;;21.80;99.90;;;;;;5052484;28;20170;-66
2022/07/27 06:53:51;;;;;;;4.57;3.97;;;22.30;99.90;;;;;;5052161;28;20221;-66
2022/07/27 06:56:18;;;;;;;5.30;4.03;;;22.50;99.90;;;;;;5033034;28;20183;-66
2022/07/27 06:58:44;;;;;;;5.40;4.43;;;23.00;99.90;;;;;;5038352;28;20179;-66
2022/07/27 07:01:09;;;;;;;5.22;3.92;;;23.10;99.90;;;;;;5052536;28;20181;-66
2022/07/27 07:03:35;;;;;;;3.95;3.63;;;23.20;99.90;;;;;;5042907;28;20684;-65
2022/07/27 07:06:01;;;;;;;4.53;4.15;;;23.40;99.90;;;;;;5032507;28;20172;-66
2022/07/27 07:08:26;;;;;;;5.50;3.70;;;23.70;99.90;;;;;;5041977;28;20249;-66
2022/07/27 07:10:53;;;;;;;4.38;3.95;;;23.60;99.90;;;;;;5052009;28;20174;-66
2022/07/27 07:13:18;;;;;;;5.78;3.97;;;23.50;99.90;;;;;;5043271;28;20235;-66
2022/07/27 07:15:44;;;;;;;4.85;3.92;;;23.70;99.90;;;;;;5031918;28;20214;-66
2022/07/27 07:18:10;;;;;;;6.63;3.85;;;23.80;99.90;;;;;;5038189;28;20177;-66
2022/07/27 07:20:37;;;;;;;9.07;4.78;;;23.90;99.90;;;;;;5051747;28;20186;-66
2022/07/27 07:23:03;;;;;;;5.82;4.05;;;23.70;99.90;;;;;;5046428;28;20273;-66
2022/07/27 07:25:29;;;;;;;7.03;4.20;;;23.50;99.90;;;;;;5031385;28;20175;-66
2022/07/27 07:27:55;;;;;;;4.70;4.30;;;23.30;99.90;;;;;;5051288;28;20182;-66
2022/07/27 07:30:21;;;;;;;5.55;4.00;;;23.00;99.90;;;;;;5051698;28;20311;-66
2022/07/27 07:32:47;;;;;;;5.47;4.00;;;23.20;99.90;;;;;;5030768;28;20183;-66
2022/07/27 07:35:13;;;;;;;6.80;3.80;;;23.50;99.90;;;;;;5030377;28;20233;-66
2022/07/27 07:37:39;;;;;;;4.60;3.65;;;23.90;99.90;;;;;;5047825;28;20535;-66
2022/07/27 07:40:06;;;;;;;4.45;3.55;;;24.30;99.90;;;;;;5051448;28;20178;-66
2022/07/27 07:42:44;;;;;;;4.25;3.80;;;24.90;99.90;;;;;;5034672;28;20187;-66
2022/07/27 07:45:09;;;;;;;4.95;3.40;;;25.50;99.90;;;;;;5031319;28;20183;-66
2022/07/27 07:47:35;;;;;;;4.82;3.70;;;25.20;99.90;;;;;;5051234;28;20182;-66
2022/07/27 07:50:00;;;;;;;3.60;3.30;;;25.00;99.90;;;;;;5033149;28;20257;-66
2022/07/27 07:52:26;;;;;;;6.68;3.63;;;25.20;99.90;;;;;;5048057;28;20178;-66
2022/07/27 07:54:51;;;;;;;3.83;3.53;;;25.50;99.90;;;;;;5041495;28;20637;-66
2022/07/27 07:57:17;;;;;;;4.55;3.80;;;25.90;99.90;;;;;;5031586;28;20197;-66
2022/07/27 07:59:44;;;;;;;4.10;3.70;;;25.90;99.90;;;;;;5043538;28;20550;-66
2022/07/27 08:02:09;;;;;;;4.22;3.40;;;26.10;99.90;;;;;;5051500;28;20202;-66
2022/07/27 08:04:35;;;;;;;5.75;3.47;;;26.30;99.90;;;;;;5038010;28;20305;-67
2022/07/27 08:07:00;;;;;;;3.22;3.00;;;26.70;99.90;;;;;;5031495;28;20184;-67
2022/07/27 08:09:27;;;;;;;3.38;3.00;;;26.90;99.90;;;;;;5041904;28;20206;-66
2022/07/27 08:11:53;;;;;;;4.05;3.42;;;27.30;99.90;;;;;;5049216;28;20167;-66
2022/07/27 08:14:18;;;;;;;5.47;3.30;;;27.30;99.90;;;;;;5049864;28;20189;-66
2022/07/27 08:16:44;;;;;;;5.80;3.60;;;26.80;99.90;;;;;;5047568;28;20193;-66
2022/07/27 08:19:10;;;;;;;5.85;4.47;;;26.20;99.90;;;;;;5030442;28;20552;-66
2022/07/27 08:21:35;;;;;;;3.83;3.63;;;25.40;99.90;;;;;;5050947;28;20175;-66
2022/07/27 08:24:01;;;;;;;3.85;3.17;;;24.20;99.90;;;;;;5039824;28;20282;-66
2022/07/27 08:26:27;;;;;;;4.28;3.33;;;23.40;99.90;;;;;;5029930;28;20278;-66
2022/07/27 08:28:53;;;;;;;3.63;3.33;;;23.30;99.90;;;;;;5063046;28;20290;-66
2022/07/27 08:31:18;;;;;;;3.35;3.05;;;23.70;99.90;;;;;;5067057;28;20654;-66
2022/07/27 08:33:44;;;;;;;6.32;3.90;;;24.50;99.90;;;;;;5035704;28;20187;-66
2022/07/27 08:36:09;;;;;;;4.43;3.80;;;25.00;99.90;;;;;;5034595;28;20175;-66
2022/07/27 08:38:35;;;;;;;4.13;3.70;;;25.20;99.90;;;;;;5035957;28;20534;-66
2022/07/27 08:41:02;;;;;;;5.18;4.03;;;25.10;99.90;;;;;;5035132;28;20179;-66
2022/07/27 08:43:29;;;;;;;4.10;3.75;;;24.70;99.90;;;;;;5034550;28;20260;-66
2022/07/27 08:45:57;;;;;;;5.88;3.97;;;24.20;99.90;;;;;;5035223;28;20182;-66
2022/07/27 08:48:24;;;;;;;4.40;4.07;;;23.70;99.90;;;;;;5046902;28;20187;-66
2022/07/27 08:50:50;;;;;;;4.57;4.18;;;23.20;99.90;;;;;;5054949;28;20166;-66
2022/07/27 08:53:17;;;;;;;4.65;4.25;;;22.70;99.90;;;;;;5043789;28;20689;-66
2022/07/27 08:55:46;;;;;;;4.35;4.03;;;22.30;99.90;;;;;;5034722;28;20642;-66
2022/07/27 08:58:12;;;;;;;3.67;3.38;;;22.20;99.90;;;;;;5044356;28;20183;-66
2022/07/27 09:00:41;;;;;;;4.97;4.47;;;22.20;99.90;;;;;;5053005;28;20183;-66
2022/07/27 09:03:09;;;;;;;4.25;3.78;;;22.40;99.90;;;;;;5034687;28;20195;-66
2022/07/27 09:05:42;;;;;;;4.00;3.70;;;22.70;99.90;;;;;;5066643;28;20202;-66
2022/07/27 09:08:14;;;;;;;7.57;3.80;;;22.70;99.90;;;;;;5054681;28;20175;-66
2022/07/27 09:10:40;;;;;;;5.13;4.03;;;22.80;99.90;;;;;;5053595;28;20210;-66
2022/07/27 09:13:32;;;;;;;4.60;4.20;;;22.90;99.90;;;;;;5053003;28;20257;-66
2022/07/27 09:16:03;;;;;;;4.38;3.97;;;23.10;99.90;;;;;;5052779;28;20183;-66
2022/07/27 09:18:32;;;;;;;4.25;4.00;;;23.60;99.90;;;;;;5054434;28;20167;-66
2022/07/27 09:21:22;;;;;;;4.45;3.90;;;23.80;99.90;;;;;;5041844;28;20182;-66
2022/07/27 09:24:05;;;;;;;4.38;3.38;;;24.10;99.90;;;;;;5066290;28;20608;-66
2022/07/27 09:26:31;;;;;;;3.78;3.47;;;24.70;99.90;;;;;;5035452;28;20283;-67
2022/07/27 09:29:09;;;;;;;3.55;3.35;;;25.30;99.90;;;;;;5034267;28;20277;-67
2022/07/27 09:31:50;;;;;;;3.90;3.33;;;26.10;99.90;;;;;;5069325;28;20194;-67
2022/07/27 09:34:30;;;;;;;3.50;3.20;;;27.10;99.90;;;;;;5053842;28;20678;-67
2022/07/27 09:36:57;;;;;;;4.43;3.40;;;27.60;99.90;;;;;;5051890;28;20262;-66
2022/07/27 09:39:25;;;;;;;4.68;3.95;;;27.30;99.90;;;;;;5049085;28;20186;-66
2022/07/27 09:41:53;;;;;;;5.75;3.65;;;27.30;99.90;;;;;;5034021;28;20593;-66
2022/07/27 09:44:32;;;;;;;4.43;3.88;;;26.60;99.90;;;;;;5050059;28;20210;-67
2022/07/27 09:46:57;;;;;;;4.10;3.67;;;25.50;99.90;;;;;;5054097;28;20593;-67
2022/07/27 09:49:31;;;;;;;4.18;3.88;;;24.80;99.90;;;;;;5036576;28;20294;-66
2022/07/27 09:51:59;;;;;;;3.50;3.30;;;24.30;99.90;;;;;;5033916;28;20176;-67
2022/07/27 09:54:24;;;;;;;4.60;4.20;;;24.10;99.90;;;;;;5065255;28;20207;-67
2022/07/27 09:57:01;;;;;;;5.15;4.68;;;24.30;99.90;;;;;;5033897;28;20534;-67
2022/07/27 09:59:28;;;;;;;5.22;4.45;;;24.70;99.90;;;;;;5068467;28;20186;-67
2022/07/27 10:01:55;;;;;;;3.72;3.53;;;25.20;99.90;;;;;;5053909;28;20163;-67
2022/07/27 10:04:22;;;;;;;4.03;3.63;;;26.10;99.90;;;;;;5038484;28;20564;-67
2022/07/27 10:06:48;;;;;;;9.98;3.20;;;27.00;99.90;;;;;;5033844;28;20193;-67
2022/07/27 10:09:14;;;;;;;3.72;3.42;;;27.80;99.90;;;;;;5045413;28;20276;-67
2022/07/27 10:11:40;;;;;;;3.40;3.00;;;28.10;99.90;;;;;;5053463;28;20175;-67
2022/07/27 10:14:06;;;;;;;3.53;3.33;;;28.20;99.90;;;;;;5049525;28;20233;-67
2022/07/27 10:16:33;;;;;;;6.00;3.90;;;28.10;99.90;;;;;;5052107;28;20185;-67
2022/07/27 10:19:21;;;;;;;4.88;4.35;;;27.90;99.90;;;;;;5043530;28;20185;-67
2022/07/27 10:21:48;;;;;;;5.20;3.35;;;27.80;99.90;;;;;;5033876;28;20190;-67
2022/07/27 10:24:30;;;;;;;4.88;4.05;;;27.40;99.90;;;;;;5053002;28;20187;-67
2022/07/27 10:26:57;;;;;;;5.43;3.88;;;27.60;99.90;;;;;;5050741;28;20343;-66
2022/07/27 10:29:23;;;;;;;3.85;3.13;;;28.00;99.90;;;;;;5031788;28;20198;-67
2022/07/27 10:31:56;;;;;;;4.45;3.95;;;28.50;99.90;;;;;;5033306;28;20687;-67
2022/07/27 10:34:32;;;;;;;4.95;4.30;;;28.20;99.90;;;;;;5035437;28;20188;-68
2022/07/27 10:37:11;;;;;;;5.43;3.92;;;27.80;99.90;;;;;;5033022;28;20167;-68
2022/07/27 10:39:40;;;;;;;4.15;3.75;;;27.80;99.90;;;;;;5032253;28;20188;-67
2022/07/27 10:42:23;;;;;;;4.68;4.18;;;27.80;99.90;;;;;;5032864;28;20169;-67
2022/07/27 10:44:59;;;;;;;4.65;4.22;;;26.90;99.90;;;;;;5086354;22;20218;-64
2022/07/27 10:47:35;;;;;;;8.25;4.30;;;26.40;99.90;;;;;;5072316;28;20959;-63
2022/07/27 10:50:15;;;;;;;5.15;4.75;;;25.70;99.90;;;;;;5072444;28;20221;-63
2022/07/27 10:52:42;;;;;;;5.28;4.40;;;25.50;99.90;;;;;;5071612;28;20216;-64
2022/07/27 10:55:28;;;;;;;5.93;4.60;;;25.10;99.90;;;;;;5072071;28;20358;-64
2022/07/27 10:57:55;;;;;;;3.83;3.63;;;25.10;99.90;;;;;;5067190;28;20189;-64
2022/07/27 11:00:49;;;;;;;5.55;3.55;;;25.10;99.90;;;;;;5051674;28;20205;-64
2022/07/27 11:03:27;;;;;;;4.00;3.70;;;25.70;99.90;;;;;;5052634;28;20214;-65
2022/07/27 11:06:11;;;;;;;4.70;3.70;;;26.40;99.90;;;;;;5052485;28;20170;-65
2022/07/27 11:08:38;;;;;;;5.78;3.78;;;26.80;99.90;;;;;;5051875;28;20186;-64
2022/07/27 11:11:05;;;;;;;3.75;3.42;;;27.50;99.90;;;;;;5051882;28;20662;-65
2022/07/27 11:13:31;;;;;;;5.57;3.30;;;28.60;99.90;;;;;;5051864;28;20206;-65
2022/07/27 11:16:05;;;;;;;4.72;3.17;;;29.40;99.90;;;;;;5052470;28;20623;-65
2022/07/27 11:18:33;;;;;;;4.15;3.35;;;29.80;99.10;;;;;;5052353;28;20578;-65
2022/07/27 11:21:19;;;;;;;7.35;3.17;;;29.70;98.20;;;;;;5064956;28;20272;-64
2022/07/27 11:23:47;;;;;;;5.28;3.47;;;29.30;99.90;;;;;;5071697;28;20186;-65
2022/07/27 11:26:13;;;;;;;3.50;3.00;;;29.20;99.90;;;;;;5071079;28;20232;-64
2022/07/27 11:28:39;;;;;;;4.13;3.83;;;28.80;99.90;;;;;;5071534;28;20177;-65
2022/07/27 11:31:07;;;;;;;3.75;3.45;;;28.30;99.90;;;;;;5052076;28;20696;-64
2022/07/27 11:33:33;;;;;;;3.88;3.53;;;28.50;99.90;;;;;;5051492;28;20186;-64
2022/07/27 11:36:04;;;;;;;4.25;3.88;;;28.40;99.90;;;;;;5069955;28;20177;-64
2022/07/27 11:38:48;;;;;;;4.53;3.22;;;28.60;99.90;;;;;;5071711;28;20304;-64
2022/07/27 11:41:21;;;;;;;3.97;3.33;;;29.10;99.50;;;;;;5051881;28;20174;-66
2022/07/27 11:43:47;;;;;;;4.15;3.60;;;29.40;99.90;;;;;;5051291;28;20207;-64
2022/07/27 11:46:21;;;;;;;3.85;3.30;;;28.80;97.70;;;;;;5070666;28;20200;-64
2022/07/27 11:49:03;;;;;;;4.53;3.40;;;28.20;98.80;;;;;;5071894;28;20242;-64
2022/07/27 11:51:29;;;;;;;5.28;3.67;;;27.20;98.40;;;;;;5051419;28;20258;-64
2022/07/27 11:54:00;;;;;;;4.13;3.83;;;26.50;98.20;;;;;;5051283;28;20191;-64
2022/07/27 11:56:30;;;;;;;3.80;3.53;;;26.30;99.90;;;;;;5070569;28;20175;-64
2022/07/27 11:59:10;;;;;;;3.67;3.38;;;26.80;99.90;;;;;;5071652;28;20222;-64
2022/07/27 12:01:39;;;;;;;3.28;3.08;;;27.50;99.90;;;;;;5051197;28;20208;-64
2022/07/27 12:04:12;;;;;;;3.72;3.42;;;28.10;99.90;;;;;;5051059;28;20822;-64
2022/07/27 12:06:39;;;;;;;3.90;3.10;;;28.90;99.90;;;;;;5070493;28;20182;-64
2022/07/27 12:09:06;;;;;;;4.75;3.17;;;29.70;99.90;;;;;;5063385;28;20277;-64
2022/07/27 12:11:55;;;;;;;3.55;2.80;;;30.00;97.50;;;;;;5051235;28;20166;-64
2022/07/27 12:14:35;;;;;;;3.83;3.03;;;30.00;96.50;;;;;;5060429;28;20208;-65
2022/07/27 12:17:19;;;;;;;3.58;3.28;;;29.90;96.10;;;;;;5071454;28;20169;-64
2022/07/27 12:19:59;;;;;;;3.30;3.10;;;29.80;95.40;;;;;;5058809;28;20183;-64
2022/07/27 12:22:28;;;;;;;4.95;3.22;;;29.80;94.40;;;;;;5059214;28;20177;-64
2022/07/27 12:24:55;;;;;;;3.35;3.13;;;29.30;96.40;;;;;;5071102;28;20206;-64
2022/07/27 12:27:21;;;;;;;3.60;3.38;;;28.90;93.90;;;;;;5063794;28;20183;-64
2022/07/27 12:30:14;;;;;;;3.97;3.50;;;27.60;92.30;;;;;;5050925;28;20202;-64
2022/07/27 12:32:44;;;;;;;3.50;3.20;;;27.50;93.80;;;;;;5059169;28;20280;-64
2022/07/27 12:35:25;;;;;;;3.80;3.40;;;27.80;98.00;;;;;;5070708;28;20606;-64
2022/07/27 12:37:58;;;;;;;4.10;3.20;;;27.50;96.60;;;;;;5061301;28;20166;-64
2022/07/27 12:40:24;;;;;;;3.28;2.97;;;27.40;97.40;;;;;;5050950;28;20254;-64
2022/07/27 12:43:02;;;;;;;3.67;3.38;;;27.40;94.20;;;;;;5060004;28;20273;-64
2022/07/27 12:45:34;;;;;;;3.35;3.10;;;27.50;92.60;;;;;;5068049;28;20181;-64
2022/07/27 12:48:11;;;;;;;3.45;3.13;;;27.60;95.30;;;;;;5070412;28;20543;-64
2022/07/27 12:50:38;;;;;;;3.53;3.22;;;28.00;91.30;;;;;;5070910;28;20673;-64
2022/07/27 12:53:04;;;;;;;3.08;2.88;;;28.50;92.30;;;;;;5061081;28;20202;-64
2022/07/27 12:55:30;;;;;;;3.20;2.90;;;28.20;92.70;;;;;;5050822;28;20167;-64
2022/07/27 12:57:56;;;;;;;3.53;2.92;;;27.80;92.30;;;;;;5058392;28;20622;-64